Time;durP1;ratioP1;P1;durP2;ratioP2;P2;SDS_P1;SDS_P2;PMS_P1;PMS_P2;Temp;Humidity;BMP_temperature;BMP_pressure;BME280_temperature;BME280_humidity;BME280_pressure;Samples;Min_cycle;Max_cycle;Signal;HPM_P1;HPM_P2
2021/01/09 00:04:42;;;;;;;163.57;94.95;;;77.30;2227.20;;;;;;4977946;28;20045;-88
2021/01/09 00:07:17;;;;;;;123.90;61.83;;;77.40;2227.20;;;;;;4959678;28;20070;-88
2021/01/09 00:09:43;;;;;;;117.00;50.10;;;77.50;2227.20;;;;;;4959702;28;20027;-88
2021/01/09 00:16:12;;;;;;;87.88;45.40;;;77.40;2227.20;;;;;;4976935;28;20029;-87
2021/01/09 00:47:11;;;;;;;111.68;61.80;;;77.40;2227.20;;;;;;4957282;29;20134;-89
2021/01/09 00:49:39;;;;;;;117.80;73.35;;;77.10;2227.20;;;;;;4939837;29;20031;-89
2021/01/09 00:52:05;;;;;;;79.95;48.17;;;77.40;2227.20;;;;;;4940242;29;20027;-89
2021/01/09 00:54:32;;;;;;;62.72;36.78;;;77.50;2227.20;;;;;;4940433;29;20023;-88
2021/01/09 00:56:58;;;;;;;53.40;32.72;;;77.30;2227.20;;;;;;4940976;29;20031;-88
2021/01/09 00:59:25;;;;;;;61.80;37.95;;;77.20;2227.20;;;;;;4940616;29;20543;-89
2021/01/09 01:01:51;;;;;;;60.88;37.80;;;77.40;2227.20;;;;;;4940275;29;20357;-89
2021/01/09 01:04:19;;;;;;;80.00;53.88;;;102.60;2227.20;;;;;;4940118;29;20027;-89
2021/01/09 01:06:45;;;;;;;58.33;39.60;;;77.20;2227.20;;;;;;4939956;29;20078;-89
2021/01/09 01:09:12;;;;;;;56.80;37.33;;;77.10;2227.20;;;;;;4939919;29;20024;-88
2021/01/09 01:11:39;;;;;;;59.15;40.03;;;76.90;2227.20;;;;;;4939856;29;20040;-89
2021/01/09 01:14:43;;;;;;;51.30;30.50;;;52.10;2227.20;;;;;;4940273;29;20019;-88
2021/01/09 01:17:20;;;;;;;32.80;21.67;;;51.90;2227.20;;;;;;4926349;29;20050;-90
2021/01/09 01:19:46;;;;;;;35.88;22.02;;;76.90;2227.20;;;;;;4940104;29;20094;-90
2021/01/09 01:22:12;;;;;;;39.33;23.67;;;77.20;2227.20;;;;;;4940175;29;20034;-89
2021/01/09 01:24:39;;;;;;;46.03;28.55;;;77.20;2227.20;;;;;;4940230;29;20035;-88
2021/01/09 01:27:05;;;;;;;58.35;38.45;;;77.60;2227.20;;;;;;4940097;29;20035;-90
2021/01/09 01:29:31;;;;;;;60.78;37.95;;;77.60;2227.20;;;;;;4939581;29;20078;-90
2021/01/09 01:32:00;;;;;;;66.57;42.90;;;77.10;2227.20;;;;;;4939815;29;20027;-90
2021/01/09 02:06:23;;;;;;;35.70;22.33;;;77.10;2227.20;;;;;;5003125;23;20050;-88
2021/01/09 02:08:57;;;;;;;52.20;31.60;;;77.20;2227.20;;;;;;4959144;28;20038;-87
2021/01/09 02:15:00;;;;;;;37.47;24.58;;;77.10;2227.20;;;;;;4976040;28;20041;-87
2021/01/09 02:17:39;;;;;;;30.88;21.27;;;77.00;2227.20;;;;;;4954216;29;20032;-89
2021/01/09 02:20:06;;;;;;;39.05;26.05;;;77.20;2227.20;;;;;;4939247;29;20027;-89
2021/01/09 02:22:43;;;;;;;32.95;23.42;;;77.20;2227.20;;;;;;4938692;29;20023;-90
2021/01/09 02:25:11;;;;;;;44.20;29.20;;;77.20;2227.20;;;;;;4939163;29;20039;-89
2021/01/09 02:27:37;;;;;;;44.58;29.23;;;76.90;2227.20;;;;;;4939330;29;20035;-89
2021/01/09 02:33:27;;;;;;;55.30;35.83;;;76.80;2227.20;;;;;;4956769;29;20063;-87
2021/01/09 02:36:05;;;;;;;64.85;48.50;;;76.80;2227.20;;;;;;4939155;29;20123;-90
2021/01/09 02:38:31;;;;;;;103.55;93.85;;;77.00;2227.20;;;;;;4922646;29;20031;-89
2021/01/09 02:40:59;;;;;;;73.70;64.45;;;77.10;2227.20;;;;;;4938709;29;20090;-89
2021/01/09 02:43:27;;;;;;;56.55;40.75;;;77.30;2227.20;;;;;;4939343;29;20042;-89
2021/01/09 02:46:31;;;;;;;50.47;33.10;;;77.40;2227.20;;;;;;4948247;28;20514;-89
2021/01/09 02:48:58;;;;;;;53.17;37.40;;;77.30;2227.20;;;;;;4973038;28;20118;-89
2021/01/09 02:51:25;;;;;;;65.78;40.90;;;77.30;2227.20;;;;;;4957928;28;20070;-88
2021/01/09 02:53:51;;;;;;;57.10;35.67;;;77.30;2227.20;;;;;;4958273;28;20073;-89
2021/01/09 02:56:17;;;;;;;74.03;44.35;;;77.40;2227.20;;;;;;4958682;28;20036;-90
2021/01/09 02:58:43;;;;;;;122.53;67.10;;;77.40;2227.20;;;;;;4958518;28;20034;-89
2021/01/09 03:01:10;;;;;;;54.15;33.33;;;77.50;2227.20;;;;;;4958921;28;20066;-89
2021/01/09 03:03:36;;;;;;;46.80;29.25;;;77.00;2227.20;;;;;;4961534;28;20027;-89
2021/01/09 03:06:02;;;;;;;37.00;24.83;;;52.10;2227.20;;;;;;4957891;28;20063;-88
2021/01/09 03:08:28;;;;;;;43.88;30.20;;;76.90;2227.20;;;;;;4958394;28;20019;-88
2021/01/09 03:10:54;;;;;;;34.95;24.25;;;76.90;2227.20;;;;;;4974223;28;20554;-90
2021/01/09 03:13:21;;;;;;;28.23;19.90;;;52.10;2227.20;;;;;;4974527;28;20031;-89
2021/01/09 03:31:04;;;;;;;36.30;22.85;;;77.20;2227.20;;;;;;4979633;28;20045;-88
2021/01/09 03:33:31;;;;;;;31.35;22.23;;;77.30;2227.20;;;;;;4945240;28;20034;-89
2021/01/09 03:35:57;;;;;;;33.45;23.25;;;77.40;2227.20;;;;;;4961226;28;20117;-89
2021/01/09 03:38:23;;;;;;;32.22;21.33;;;77.50;2227.20;;;;;;4961155;28;20033;-90
2021/01/09 03:40:49;;;;;;;32.67;23.30;;;77.40;2227.20;;;;;;4960779;28;20034;-87
2021/01/09 03:43:16;;;;;;;44.00;29.50;;;77.30;2227.20;;;;;;4960550;28;20117;-89
2021/01/09 03:45:42;;;;;;;45.70;29.83;;;76.90;2227.20;;;;;;4960731;28;20467;-89
2021/01/09 03:50:53;;;;;;;39.95;25.27;;;52.00;2227.20;;;;;;4977918;28;20498;-88
2021/01/09 03:53:19;;;;;;;43.80;27.77;;;76.90;2227.20;;;;;;4944789;28;20199;-88
2021/01/09 03:55:46;;;;;;;49.70;30.60;;;77.00;2227.20;;;;;;4960457;28;20431;-89
2021/01/09 03:58:12;;;;;;;50.88;31.63;;;76.80;2227.20;;;;;;4960349;28;20033;-89
2021/01/09 04:37:56;;;;;;;34.70;23.33;;;77.20;2227.20;;;;;;4979842;28;20045;-91
2021/01/09 04:40:22;;;;;;;45.67;30.52;;;77.30;2227.20;;;;;;4960266;28;20494;-89
2021/01/09 04:42:48;;;;;;;60.40;38.95;;;77.40;2227.20;;;;;;4959555;28;20029;-88
2021/01/09 04:45:15;;;;;;;42.10;29.13;;;77.10;2227.20;;;;;;4959889;28;20529;-90
2021/01/09 04:47:42;;;;;;;43.15;29.20;;;77.10;2227.20;;;;;;4960468;28;20106;-89
2021/01/09 04:50:09;;;;;;;48.45;36.00;;;77.30;2227.20;;;;;;4959833;28;20081;-90
2021/01/09 04:52:37;;;;;;;55.55;38.17;;;77.30;2227.20;;;;;;4959535;28;20118;-88
2021/01/09 04:55:03;;;;;;;57.45;41.08;;;77.40;2227.20;;;;;;4959281;28;20498;-89
2021/01/09 04:57:33;;;;;;;68.88;48.15;;;77.40;2227.20;;;;;;4959263;28;20030;-89
2021/01/09 04:59:59;;;;;;;86.72;56.90;;;77.50;2227.20;;;;;;4959035;28;20531;-90
2021/01/09 05:02:27;;;;;;;69.78;46.63;;;77.40;2227.20;;;;;;4960047;28;20022;-89
2021/01/09 05:04:54;;;;;;;55.80;36.35;;;77.20;2227.20;;;;;;4959277;28;20038;-88
2021/01/09 05:07:20;;;;;;;60.83;42.60;;;77.40;2227.20;;;;;;4959124;28;20114;-89
2021/01/09 05:09:46;;;;;;;57.15;40.05;;;77.40;2227.20;;;;;;4959045;28;20027;-91
2021/01/09 05:12:15;;;;;;;64.95;44.20;;;77.60;2227.20;;;;;;4958725;28;20019;-89
2021/01/09 05:14:42;;;;;;;66.95;44.58;;;77.60;2227.20;;;;;;4958858;28;20473;-89
2021/01/09 05:17:08;;;;;;;64.82;43.60;;;77.40;2227.20;;;;;;4972901;28;20033;-89
2021/01/09 05:19:35;;;;;;;58.08;36.60;;;77.40;2227.20;;;;;;4978892;28;20455;-89
2021/01/09 05:22:03;;;;;;;53.95;33.08;;;77.40;2227.20;;;;;;4978131;28;20434;-89
2021/01/09 05:24:29;;;;;;;47.33;31.15;;;77.50;2227.20;;;;;;4977763;28;20026;-88
2021/01/09 05:26:56;;;;;;;42.55;26.40;;;77.40;2227.20;;;;;;4978199;28;20054;-89
2021/01/09 05:29:42;;;;;;;68.25;36.10;;;77.30;2227.20;;;;;;4961966;28;20049;-89
2021/01/09 06:29:49;;;;;;;98.88;63.55;;;77.40;2227.20;;;;;;4976088;28;20038;-88
2021/01/09 06:35:05;;;;;;;104.35;68.70;;;77.50;2227.20;;;;;;4976201;28;20065;-88
2021/01/09 06:37:31;;;;;;;72.97;48.08;;;77.60;2227.20;;;;;;4961452;28;20372;-89
2021/01/09 06:39:59;;;;;;;79.07;49.20;;;77.60;2227.20;;;;;;4962443;28;20027;-90
2021/01/09 06:42:25;;;;;;;84.32;53.28;;;77.40;2227.20;;;;;;4961723;28;20391;-88
2021/01/09 06:44:53;;;;;;;288.08;167.10;;;76.90;2227.20;;;;;;4962223;28;20117;-89
2021/01/09 06:48:01;;;;;;;129.90;82.93;;;77.50;2227.20;;;;;;4962340;28;20142;-87
2021/01/09 06:50:26;;;;;;;142.63;86.28;;;77.30;2227.20;;;;;;4961078;28;20027;-88
2021/01/09 06:52:57;;;;;;;127.28;79.95;;;77.40;2227.20;;;;;;4961758;28;20093;-90
2021/01/09 06:55:51;;;;;;;121.43;78.28;;;77.60;2227.20;;;;;;4962060;28;20019;-89
2021/01/09 06:58:17;;;;;;;171.98;114.07;;;77.70;2227.20;;;;;;4961361;28;20023;-89
2021/01/09 07:00:43;;;;;;;113.75;75.60;;;77.40;2227.20;;;;;;4962390;28;20050;-89
2021/01/09 07:03:15;;;;;;;80.97;54.00;;;77.70;2227.20;;;;;;4961834;28;20026;-89
2021/01/09 07:08:50;;;;;;;69.70;45.28;;;77.40;2227.20;;;;;;4979095;28;20080;-89
2021/01/09 07:11:16;;;;;;;60.00;42.05;;;77.20;2227.20;;;;;;4961472;28;20019;-89
2021/01/09 07:13:44;;;;;;;64.80;42.15;;;77.70;2227.20;;;;;;4978358;28;20471;-89
2021/01/09 07:16:13;;;;;;;82.13;54.47;;;51.80;2227.20;;;;;;4961234;28;20035;-89
2021/01/09 07:18:44;;;;;;;98.47;66.50;;;77.00;2227.20;;;;;;4957775;28;20051;-88
2021/01/09 07:21:12;;;;;;;84.80;56.35;;;77.20;2227.20;;;;;;4958007;29;20027;-89
2021/01/09 07:23:39;;;;;;;81.38;52.95;;;77.20;2227.20;;;;;;4957997;29;20027;-89
2021/01/09 07:26:05;;;;;;;112.80;70.32;;;77.30;2227.20;;;;;;4958111;29;20058;-89
2021/01/09 07:28:37;;;;;;;109.95;69.30;;;77.30;2227.20;;;;;;4957698;29;20024;-89
2021/01/09 07:31:10;;;;;;;89.50;56.60;;;77.20;2227.20;;;;;;4941848;29;20028;-89
2021/01/09 07:33:37;;;;;;;77.43;49.28;;;77.40;2227.20;;;;;;4958082;29;20452;-89
2021/01/09 07:36:04;;;;;;;96.60;59.95;;;77.20;2227.20;;;;;;4958211;29;20023;-89
2021/01/09 07:38:31;;;;;;;139.27;95.22;;;77.30;2227.20;;;;;;4957422;29;20043;-90
2021/01/09 07:41:05;;;;;;;103.47;74.68;;;77.10;2227.20;;;;;;4957695;29;20435;-91
2021/01/09 07:44:10;;;;;;;96.75;62.08;;;77.30;2227.20;;;;;;4957325;29;20035;-90
2021/01/09 07:46:36;;;;;;;77.90;51.55;;;77.40;2227.20;;;;;;4957082;28;20027;-90
2021/01/09 07:49:04;;;;;;;75.75;46.72;;;77.40;2227.20;;;;;;4957149;29;20163;-90
2021/01/09 07:52:26;;;;;;;76.10;45.83;;;77.40;2227.20;;;;;;4957426;29;20435;-88
2021/01/09 07:54:56;;;;;;;68.28;42.05;;;77.40;2227.20;;;;;;4958153;29;20031;-88
2021/01/09 07:57:26;;;;;;;67.80;42.83;;;77.60;2227.20;;;;;;4958740;29;20464;-88
2021/01/09 07:59:55;;;;;;;66.00;40.55;;;77.40;2227.20;;;;;;4957598;29;20114;-89
2021/01/09 08:02:25;;;;;;;69.45;44.08;;;77.50;2227.20;;;;;;4957456;29;20034;-88
2021/01/09 08:05:00;;;;;;;75.47;48.70;;;77.40;2227.20;;;;;;4957723;29;20478;-91
2021/01/09 08:07:27;;;;;;;68.60;48.97;;;77.40;2227.20;;;;;;4957963;29;20027;-89
2021/01/09 08:09:53;;;;;;;72.20;48.95;;;77.40;2227.20;;;;;;4956973;29;20020;-89
2021/01/09 08:12:29;;;;;;;70.22;45.63;;;77.40;2227.20;;;;;;4957457;29;20023;-89
2021/01/09 08:14:59;;;;;;;74.47;47.70;;;77.40;2227.20;;;;;;4956278;29;20035;-89
2021/01/09 08:17:25;;;;;;;90.28;56.60;;;77.50;2227.20;;;;;;4957710;29;20054;-89
2021/01/09 08:19:51;;;;;;;93.60;60.78;;;77.40;2227.20;;;;;;4957355;29;20054;-90
2021/01/09 08:22:17;;;;;;;104.05;66.65;;;77.60;2227.20;;;;;;4957306;29;20031;-88
2021/01/09 08:24:44;;;;;;;100.63;61.75;;;77.60;2227.20;;;;;;4956740;29;20375;-89
2021/01/09 08:27:19;;;;;;;131.82;83.78;;;77.40;2227.20;;;;;;4956608;29;20031;-90
2021/01/09 08:29:45;;;;;;;124.57;76.75;;;77.40;2227.20;;;;;;4956340;29;20030;-90
2021/01/09 08:32:13;;;;;;;103.18;67.65;;;77.50;2227.20;;;;;;4956924;29;20467;-88
2021/01/09 08:34:47;;;;;;;86.57;58.42;;;77.30;2227.20;;;;;;4941009;29;20035;-89
2021/01/09 08:37:14;;;;;;;82.28;50.50;;;77.10;2227.20;;;;;;4937504;29;20028;-89
2021/01/09 08:39:43;;;;;;;53.90;36.97;;;77.30;2227.20;;;;;;4920199;29;20032;-89
2021/01/09 08:42:14;;;;;;;69.43;52.30;;;77.40;2227.20;;;;;;4936285;29;20039;-88
2021/01/09 08:45:36;;;;;;;60.63;46.72;;;77.30;2227.20;;;;;;4936337;29;20032;-84
2021/01/09 08:48:02;;;;;;;54.78;40.47;;;77.50;2227.20;;;;;;4936106;29;20035;-85
2021/01/09 08:50:31;;;;;;;79.80;53.00;;;77.70;2227.20;;;;;;4936123;29;20035;-87
2021/01/09 08:53:01;;;;;;;128.15;71.43;;;102.40;2227.20;;;;;;4936186;29;20119;-87
2021/01/09 08:55:28;;;;;;;110.05;67.32;;;77.70;2227.20;;;;;;4937215;29;20439;-88
2021/01/09 08:58:15;;;;;;;87.47;53.97;;;77.70;2227.20;;;;;;4936509;29;20124;-92
2021/01/09 09:00:56;;;;;;;112.60;70.40;;;102.40;2227.20;;;;;;4935138;29;20484;-92
2021/01/09 09:03:27;;;;;;;81.72;54.13;;;77.70;2227.20;;;;;;4938716;29;20027;-93
2021/01/09 09:05:56;;;;;;;96.95;66.25;;;77.60;2227.20;;;;;;4925574;29;20477;-83
2021/01/09 09:08:28;;;;;;;123.72;76.13;;;77.70;2227.20;;;;;;4920800;28;20034;-83
2021/01/09 09:10:55;;;;;;;95.13;64.57;;;77.70;2227.20;;;;;;4935324;29;20087;-86
2021/01/09 09:13:23;;;;;;;83.40;56.65;;;77.40;2227.20;;;;;;4935255;29;20290;-88
2021/01/09 09:15:51;;;;;;;142.82;97.10;;;102.40;2227.20;;;;;;4936239;29;20063;-86
2021/01/09 09:18:18;;;;;;;157.70;118.57;;;77.70;2227.20;;;;;;4951099;28;20036;-89
2021/01/09 09:20:50;;;;;;;142.00;107.43;;;77.50;2227.20;;;;;;4936939;29;20027;-83
2021/01/09 09:26:17;;;;;;;76.72;53.78;;;77.60;2227.20;;;;;;4956390;28;20038;-88
2021/01/09 09:28:53;;;;;;;132.80;88.07;;;77.50;2227.20;;;;;;4937269;29;20055;-89
2021/01/09 09:34:41;;;;;;;204.70;133.05;;;77.40;2227.20;;;;;;4975567;28;20038;-88
2021/01/09 10:23:30;;;;;;;60.85;40.80;;;77.70;2227.20;;;;;;4992033;28;20049;-84
2021/01/09 10:25:57;;;;;;;70.88;47.47;;;102.40;2227.20;;;;;;4981129;28;20113;-88
2021/01/09 10:28:23;;;;;;;98.40;59.50;;;102.40;2227.20;;;;;;4981343;28;20023;-89
2021/01/09 10:30:50;;;;;;;63.50;42.35;;;102.70;2227.20;;;;;;4981574;28;20451;-91
2021/01/09 10:33:16;;;;;;;56.22;38.17;;;102.60;2227.20;;;;;;4981022;28;20025;-88
2021/01/09 10:36:02;;;;;;;58.50;39.85;;;102.50;2227.20;;;;;;4981200;28;20054;-90
2021/01/09 10:38:28;;;;;;;51.00;32.13;;;102.60;2227.20;;;;;;4980240;28;20113;-89
2021/01/09 10:40:55;;;;;;;53.08;33.13;;;102.50;2227.20;;;;;;4971409;28;20114;-89
2021/01/09 10:43:21;;;;;;;50.35;33.55;;;102.40;2227.20;;;;;;4961896;28;20479;-88
2021/01/09 10:45:48;;;;;;;48.58;30.20;;;102.50;2227.20;;;;;;4961390;28;20041;-87
2021/01/09 10:51:03;;;;;;;84.53;54.55;;;102.60;2227.20;;;;;;4977400;28;20093;-89
2021/01/09 10:53:29;;;;;;;75.22;54.03;;;102.50;2227.20;;;;;;4961166;28;20023;-90
2021/01/09 10:56:03;;;;;;;77.32;50.80;;;102.60;2227.20;;;;;;4959806;28;20081;-88
2021/01/09 10:58:29;;;;;;;82.30;52.15;;;102.80;2227.20;;;;;;4945414;28;20086;-91
2021/01/09 11:00:55;;;;;;;65.68;40.28;;;77.70;2227.20;;;;;;4961507;28;20078;-91
2021/01/09 11:03:21;;;;;;;63.35;38.10;;;102.80;2227.20;;;;;;4961039;28;20035;-89
2021/01/09 11:05:49;;;;;;;57.17;39.10;;;103.00;2227.20;;;;;;4959939;28;20030;-88
2021/01/09 11:08:16;;;;;;;53.15;33.60;;;103.00;2227.20;;;;;;4957243;28;20033;-89
2021/01/09 11:10:42;;;;;;;58.95;38.90;;;103.00;2227.20;;;;;;4955623;28;20022;-90
2021/01/09 11:13:08;;;;;;;65.03;45.95;;;102.90;2227.20;;;;;;4958158;28;20023;-89
2021/01/09 11:15:35;;;;;;;57.75;39.72;;;102.80;2227.20;;;;;;4956353;28;20053;-91
2021/01/09 11:18:01;;;;;;;60.10;41.65;;;102.70;2227.20;;;;;;4958154;28;20031;-89
2021/01/09 11:20:28;;;;;;;60.58;42.22;;;102.90;2227.20;;;;;;4960882;28;20042;-90
2021/01/09 11:22:58;;;;;;;69.03;44.97;;;128.80;2252.80;;;;;;4958748;28;20475;-91
2021/01/09 11:25:24;;;;;;;78.32;52.42;;;103.00;2227.20;;;;;;4959231;28;20038;-90
2021/01/09 11:27:50;;;;;;;77.93;47.40;;;103.00;2227.20;;;;;;4977640;28;20023;-87
2021/01/09 11:30:17;;;;;;;61.10;39.85;;;103.10;2227.20;;;;;;4961027;28;20085;-89
2021/01/09 11:32:43;;;;;;;76.43;49.60;;;102.90;2227.20;;;;;;4960540;28;20034;-89
2021/01/09 11:35:26;;;;;;;76.47;50.50;;;102.90;2227.20;;;;;;4977267;28;20027;-91
2021/01/09 11:38:11;;;;;;;73.03;49.25;;;102.90;2227.20;;;;;;4959569;28;20510;-94
2021/01/09 11:40:37;;;;;;;108.65;70.15;;;102.90;2227.20;;;;;;4942969;28;20035;-90
2021/01/09 11:43:13;;;;;;;104.25;67.72;;;103.00;2227.20;;;;;;4958712;28;20474;-93
2021/01/09 11:45:40;;;;;;;90.78;61.70;;;103.20;2227.20;;;;;;4960896;28;20037;-89
2021/01/09 11:48:07;;;;;;;65.78;45.13;;;103.10;2227.20;;;;;;4960554;28;20023;-88
2021/01/09 11:50:34;;;;;;;64.57;43.90;;;103.10;2227.20;;;;;;4958629;28;20102;-87
2021/01/09 11:53:03;;;;;;;76.97;51.47;;;103.00;2227.20;;;;;;4958579;28;20058;-90
2021/01/09 11:55:29;;;;;;;76.15;51.33;;;103.00;2227.20;;;;;;4961751;28;20031;-88
2021/01/09 11:57:55;;;;;;;75.97;53.33;;;103.00;2227.20;;;;;;4959694;28;20467;-86
2021/01/09 12:00:21;;;;;;;69.82;47.55;;;103.20;2227.20;;;;;;4958088;28;20072;-84
2021/01/09 12:02:47;;;;;;;57.50;38.95;;;103.10;2227.20;;;;;;4955474;28;20149;-86
2021/01/09 12:05:13;;;;;;;53.22;36.25;;;103.00;2227.20;;;;;;4959428;28;20097;-90
2021/01/09 12:07:39;;;;;;;78.53;53.40;;;103.00;2227.20;;;;;;4959164;28;20030;-89
2021/01/09 12:10:07;;;;;;;69.82;44.80;;;103.30;2227.20;;;;;;4959848;28;20174;-90
2021/01/09 12:12:36;;;;;;;71.63;50.22;;;103.00;2227.20;;;;;;4960126;28;20026;-90
2021/01/09 12:15:06;;;;;;;73.60;47.22;;;103.00;2227.20;;;;;;4959643;28;20031;-90
2021/01/09 12:17:36;;;;;;;66.20;44.78;;;103.00;2227.20;;;;;;4959187;28;20069;-90
2021/01/09 12:20:03;;;;;;;79.93;57.38;;;103.00;2227.20;;;;;;4955266;28;20399;-89
2021/01/09 12:22:31;;;;;;;72.60;49.35;;;102.90;2227.20;;;;;;4956391;28;20028;-91
2021/01/09 12:24:57;;;;;;;67.70;47.33;;;103.00;2227.20;;;;;;4972740;28;20023;-90
2021/01/09 12:27:26;;;;;;;72.45;50.15;;;103.00;2227.20;;;;;;4956520;28;20114;-90
2021/01/09 12:29:52;;;;;;;81.25;54.80;;;103.00;2227.20;;;;;;4973059;28;20031;-90
2021/01/09 12:32:18;;;;;;;88.72;61.50;;;102.90;2227.20;;;;;;4973000;28;20035;-89
2021/01/09 12:34:44;;;;;;;98.20;63.08;;;102.90;2227.20;;;;;;4956857;28;20024;-89
2021/01/09 12:37:10;;;;;;;106.68;64.10;;;102.90;2227.20;;;;;;4972593;28;20023;-89
2021/01/09 12:39:37;;;;;;;109.65;68.57;;;102.90;2227.20;;;;;;4972973;28;20086;-88
2021/01/09 12:42:06;;;;;;;113.20;70.50;;;102.80;2227.20;;;;;;4956453;29;20063;-90
2021/01/09 12:44:32;;;;;;;107.13;66.18;;;102.80;2227.20;;;;;;4956733;28;20468;-90
2021/01/09 12:46:59;;;;;;;105.18;62.85;;;102.80;2227.20;;;;;;4972634;28;20031;-90
2021/01/09 12:49:25;;;;;;;105.95;65.35;;;102.80;2227.20;;;;;;4972000;28;20075;-89
2021/01/09 12:51:52;;;;;;;158.80;91.25;;;102.80;2227.20;;;;;;4972534;28;20023;-89
2021/01/09 12:54:18;;;;;;;118.45;70.43;;;102.90;2227.20;;;;;;4972377;28;20050;-91
2021/01/09 12:56:44;;;;;;;117.28;69.30;;;103.00;2227.20;;;;;;4972323;28;20051;-90
2021/01/09 12:59:11;;;;;;;98.05;63.58;;;103.00;2227.20;;;;;;4972356;28;20030;-90
2021/01/09 13:01:45;;;;;;;76.45;52.90;;;102.80;2227.20;;;;;;4956541;28;20038;-89
2021/01/09 13:04:13;;;;;;;80.13;52.25;;;102.80;2227.20;;;;;;4956511;29;20202;-90
2021/01/09 13:06:47;;;;;;;95.28;61.75;;;102.80;2227.20;;;;;;4956085;28;20030;-90
2021/01/09 13:09:17;;;;;;;97.55;61.67;;;102.80;2227.20;;;;;;4955826;29;20024;-91
2021/01/09 13:11:44;;;;;;;149.52;86.35;;;102.80;2227.20;;;;;;4956388;28;20020;-91
2021/01/09 13:14:11;;;;;;;134.35;82.43;;;102.80;2227.20;;;;;;4955881;28;20371;-91
2021/01/09 13:16:45;;;;;;;142.10;86.85;;;103.00;2227.20;;;;;;4955604;28;20035;-89
2021/01/09 13:19:11;;;;;;;140.93;92.70;;;103.00;2227.20;;;;;;4956459;29;20118;-89
2021/01/09 13:21:43;;;;;;;127.55;82.10;;;103.00;2227.20;;;;;;4973529;28;20089;-90
2021/01/09 13:24:12;;;;;;;99.22;63.50;;;103.00;2227.20;;;;;;4958172;28;20538;-89
2021/01/09 13:26:40;;;;;;;93.38;62.55;;;102.70;2227.20;;;;;;4959168;28;20035;-90
2021/01/09 13:29:07;;;;;;;102.38;65.55;;;102.90;2227.20;;;;;;4955763;29;20106;-89
2021/01/09 13:31:34;;;;;;;106.65;68.07;;;102.90;2227.20;;;;;;4955613;29;20031;-90
2021/01/09 13:34:00;;;;;;;106.93;65.80;;;103.00;2227.20;;;;;;4955842;28;20027;-90
2021/01/09 13:36:30;;;;;;;94.22;61.25;;;103.20;2227.20;;;;;;4955777;29;20039;-90
2021/01/09 13:38:57;;;;;;;84.45;56.25;;;103.20;2227.20;;;;;;4955475;28;20027;-90
2021/01/09 13:41:23;;;;;;;86.55;56.58;;;103.20;2227.20;;;;;;4955867;29;20034;-89
2021/01/09 13:43:49;;;;;;;95.15;64.65;;;103.20;2227.20;;;;;;4971448;28;20027;-89
2021/01/09 13:46:24;;;;;;;78.88;53.85;;;103.10;2227.20;;;;;;4955632;28;20031;-89
2021/01/09 13:48:50;;;;;;;80.60;54.13;;;103.00;2227.20;;;;;;4956118;29;20033;-89
2021/01/09 13:51:24;;;;;;;88.50;60.42;;;103.00;2227.20;;;;;;4955449;29;20046;-89
2021/01/09 13:53:50;;;;;;;84.30;56.42;;;103.00;2227.20;;;;;;4956170;29;20020;-88
2021/01/09 13:56:16;;;;;;;82.10;55.33;;;103.00;2227.20;;;;;;4955374;28;20031;-88
2021/01/09 13:58:46;;;;;;;91.90;62.75;;;102.90;2227.20;;;;;;4971450;28;20057;-88
2021/01/09 14:01:12;;;;;;;92.78;61.30;;;102.80;2227.20;;;;;;4955227;28;20033;-89
2021/01/09 14:03:38;;;;;;;78.10;51.85;;;102.90;2227.20;;;;;;4955441;28;20027;-89
2021/01/09 14:06:04;;;;;;;83.68;56.35;;;102.80;2227.20;;;;;;4955093;28;20028;-88
2021/01/09 14:08:30;;;;;;;88.75;60.47;;;102.80;2227.20;;;;;;4971751;28;20019;-89
2021/01/09 14:10:56;;;;;;;91.88;61.50;;;102.80;2227.20;;;;;;4971485;28;20423;-91
2021/01/09 14:13:22;;;;;;;99.43;66.18;;;102.80;2227.20;;;;;;4971304;28;20023;-90
2021/01/09 14:15:47;;;;;;;105.82;68.03;;;102.90;2227.20;;;;;;4972394;28;20062;-89
2021/01/09 14:18:13;;;;;;;110.93;73.13;;;102.90;2227.20;;;;;;4971753;28;20062;-89
2021/01/09 14:20:39;;;;;;;97.93;64.60;;;102.80;2227.20;;;;;;4970800;28;20047;-89
2021/01/09 14:23:05;;;;;;;88.93;61.78;;;102.80;2227.20;;;;;;4971450;28;20395;-91
2021/01/09 14:25:31;;;;;;;78.47;57.05;;;102.80;2227.20;;;;;;4971974;28;20106;-89
2021/01/09 14:27:57;;;;;;;87.53;60.95;;;102.80;2227.20;;;;;;4971131;28;20028;-89
2021/01/09 14:30:23;;;;;;;111.22;80.07;;;102.80;2227.20;;;;;;4971250;28;20019;-89
2021/01/09 14:32:49;;;;;;;121.40;94.88;;;103.00;2227.20;;;;;;4954845;28;20023;-90
2021/01/09 14:35:15;;;;;;;95.40;70.50;;;102.80;2227.20;;;;;;4971278;28;20024;-90
2021/01/09 14:37:40;;;;;;;88.55;58.30;;;102.90;2227.20;;;;;;4976422;28;20434;-89
2021/01/09 14:40:07;;;;;;;101.68;64.28;;;103.00;2227.20;;;;;;4974313;28;20030;-90
2021/01/09 14:42:33;;;;;;;89.93;59.17;;;102.80;2227.20;;;;;;4973463;28;20082;-88
2021/01/09 14:44:58;;;;;;;95.88;65.75;;;103.00;2227.20;;;;;;4974399;28;20065;-90
2021/01/09 14:47:28;;;;;;;85.43;59.13;;;102.90;2227.20;;;;;;4958084;28;20024;-89
2021/01/09 14:49:54;;;;;;;109.43;73.63;;;103.00;2227.20;;;;;;4955580;29;20027;-89
2021/01/09 14:52:19;;;;;;;236.68;131.20;;;102.90;2227.20;;;;;;4970300;28;20028;-90
2021/01/09 14:54:45;;;;;;;375.17;213.02;;;102.90;2227.20;;;;;;4971151;28;20603;-89
2021/01/09 14:57:11;;;;;;;319.85;186.68;;;102.90;2227.20;;;;;;4973341;28;20170;-89
2021/01/09 14:59:37;;;;;;;217.57;130.52;;;102.90;2227.20;;;;;;4974295;28;20050;-89
2021/01/09 15:02:03;;;;;;;178.38;114.13;;;102.90;2227.20;;;;;;4958372;29;20087;-88
2021/01/09 15:04:29;;;;;;;515.13;256.40;;;102.90;2227.20;;;;;;4974833;28;20027;-88
2021/01/09 15:06:55;;;;;;;208.82;123.40;;;102.80;2227.20;;;;;;4973339;28;20448;-89
2021/01/09 15:09:20;;;;;;;210.50;125.78;;;102.90;2227.20;;;;;;4958538;28;20113;-91
2021/01/09 15:11:46;;;;;;;177.40;110.07;;;103.00;2227.20;;;;;;4973367;28;20480;-88
2021/01/09 15:14:13;;;;;;;156.55;97.53;;;102.80;2227.20;;;;;;4973948;28;20027;-89
2021/01/09 15:16:39;;;;;;;175.73;108.97;;;102.90;2227.20;;;;;;4974713;28;20118;-90
2021/01/09 15:19:14;;;;;;;135.93;85.85;;;102.90;2227.20;;;;;;4974397;28;20122;-90
2021/01/09 15:21:45;;;;;;;131.70;85.90;;;102.80;2227.20;;;;;;4973671;28;20054;-89
2021/01/09 15:24:12;;;;;;;124.78;75.78;;;102.70;2227.20;;;;;;4958558;29;20039;-87
2021/01/09 15:26:39;;;;;;;150.07;87.60;;;102.70;2227.20;;;;;;4957578;28;20388;-89
2021/01/09 15:29:06;;;;;;;105.60;65.82;;;102.70;2227.20;;;;;;4957912;28;20027;-89
2021/01/09 15:31:32;;;;;;;104.32;62.45;;;102.60;2227.20;;;;;;4958631;29;20051;-90
2021/01/09 15:33:58;;;;;;;110.43;69.40;;;102.40;2227.20;;;;;;4957256;28;20106;-89
2021/01/09 15:36:40;;;;;;;112.90;70.20;;;102.70;2227.20;;;;;;4973634;28;20130;-89
2021/01/09 15:39:08;;;;;;;194.00;112.80;;;102.70;2227.20;;;;;;4957723;28;20468;-89
2021/01/09 15:41:33;;;;;;;201.20;123.03;;;102.80;2227.20;;;;;;4957543;28;20031;-90
2021/01/09 15:44:00;;;;;;;199.63;134.32;;;102.90;2227.20;;;;;;4973822;28;20506;-89
2021/01/09 15:46:26;;;;;;;158.70;100.97;;;102.90;2227.20;;;;;;4957648;28;20118;-88
2021/01/09 15:48:52;;;;;;;271.85;165.68;;;102.80;2227.20;;;;;;4973493;28;20511;-89
2021/01/09 15:51:18;;;;;;;196.95;121.63;;;102.80;2227.20;;;;;;4957477;28;20117;-88
2021/01/09 15:53:44;;;;;;;179.65;116.38;;;102.70;2227.20;;;;;;4973928;28;20020;-89
2021/01/09 15:56:13;;;;;;;197.40;128.23;;;102.60;2227.20;;;;;;4973584;28;20031;-90
2021/01/09 15:58:42;;;;;;;132.75;89.90;;;102.50;2227.20;;;;;;4957684;28;20027;-86
2021/01/09 16:01:11;;;;;;;151.68;101.57;;;102.40;2227.20;;;;;;4956619;28;20086;-90
2021/01/09 16:03:37;;;;;;;136.40;85.20;;;102.50;2227.20;;;;;;4957433;29;20031;-90
2021/01/09 16:06:08;;;;;;;123.60;82.90;;;102.50;2227.20;;;;;;4957451;29;20035;-89
2021/01/09 16:08:35;;;;;;;132.07;86.10;;;102.60;2227.20;;;;;;4956543;28;20422;-88
2021/01/09 16:11:01;;;;;;;116.20;80.00;;;103.00;2227.20;;;;;;4957140;28;20082;-88
2021/01/09 16:13:27;;;;;;;120.50;76.95;;;77.50;2227.20;;;;;;4973193;28;20031;-88
2021/01/09 16:15:53;;;;;;;101.30;62.13;;;77.40;2227.20;;;;;;4956952;28;20042;-86
2021/01/09 16:18:20;;;;;;;80.95;50.42;;;77.40;2227.20;;;;;;4973202;28;20029;-87